Terminal Aerodrome Forecast
Issued by NWS Knoxville/Tri Cities, TN

Home | Current Version | Previous Version | Text Only | Print | Product List | Glossary On
Versions: 1 2 3 4 5 6 7 8 9 10 11 12 13 14 15 16 17 18
000
FTUS44 KMRX 221222 AAA
TAFCHA
TAF AMD
KCHA 221222Z 2212/2312 15010KT 5SM -RA BR SCT015 BKN050
     FM222000 16012KT P6SM -RA SCT020 OVC035
     FM230300 18006KT P6SM VCSH SCT015 OVC022=

USA.gov is the U.S. government's official web portal to all federal, state and local government web resources and services.